Time;durP1;ratioP1;P1;durP2;ratioP2;P2;SDS_P1;SDS_P2;PMS_P1;PMS_P2;Temp;Humidity;BMP_temperature;BMP_pressure;BME280_temperature;BME280_humidity;BME280_pressure;Samples;Min_cycle;Max_cycle;Signal;HPM_P1;HPM_P2
2021/08/03 00:01:53;;;;;;;1.53;1.40;;;;;;;21.75;69.81;100312.61;;;;-59
2021/08/03 00:04:55;;;;;;;1.57;1.40;;;;;;;21.75;69.80;100312.50;;;;-59
2021/08/03 00:07:53;;;;;;;1.50;1.40;;;;;;;21.75;69.80;100316.74;;;;-58
2021/08/03 00:10:53;;;;;;;1.59;1.49;;;;;;;21.73;69.85;100310.91;;;;-59
2021/08/03 00:13:53;;;;;;;1.83;1.53;;;;;;;21.73;69.87;100311.05;;;;-58
2021/08/03 00:16:53;;;;;;;1.83;1.55;;;;;;;21.73;69.83;100309.69;;;;-58
2021/08/03 00:19:53;;;;;;;1.70;1.53;;;;;;;21.72;69.88;100305.52;;;;-58
2021/08/03 00:22:53;;;;;;;1.46;1.36;;;;;;;21.72;69.86;100305.20;;;;-59
2021/08/03 00:25:53;;;;;;;1.65;1.50;;;;;;;21.71;69.89;100306.27;;;;-59
2021/08/03 00:28:53;;;;;;;1.58;1.48;;;;;;;21.72;69.81;100303.40;;;;-58
2021/08/03 00:31:53;;;;;;;1.53;1.43;;;;;;;21.71;69.88;100307.33;;;;-58
2021/08/03 00:34:53;;;;;;;1.53;1.43;;;;;;;21.71;69.91;100311.24;;;;-59
2021/08/03 00:37:53;;;;;;;1.50;1.40;;;;;;;21.70;69.88;100308.37;;;;-58
2021/08/03 00:40:53;;;;;;;1.40;1.30;;;;;;;21.70;69.90;100309.35;;;;-58
2021/08/03 00:43:53;;;;;;;1.50;1.40;;;;;;;21.70;69.87;100306.59;;;;-58
2021/08/03 00:46:53;;;;;;;1.50;1.40;;;;;;;21.70;69.89;100303.16;;;;-58
2021/08/03 00:49:53;;;;;;;1.50;1.40;;;;;;;21.68;69.91;100303.08;;;;-59
2021/08/03 00:52:53;;;;;;;1.52;1.42;;;;;;;21.68;69.87;100305.70;;;;-58
2021/08/03 00:55:53;;;;;;;1.50;1.40;;;;;;;21.68;69.92;100306.44;;;;-58
2021/08/03 00:58:53;;;;;;;1.59;1.49;;;;;;;21.67;69.88;100303.75;;;;-58
2021/08/03 01:01:53;;;;;;;1.78;1.40;;;;;;;21.67;69.91;100302.61;;;;-58
2021/08/03 01:04:53;;;;;;;1.50;1.40;;;;;;;21.67;69.94;100301.15;;;;-59
2021/08/03 01:07:53;;;;;;;1.58;1.48;;;;;;;21.66;69.93;100300.64;;;;-59
2021/08/03 01:10:53;;;;;;;1.65;1.31;;;;;;;21.66;69.94;100304.87;;;;-58
2021/08/03 01:13:53;;;;;;;1.40;1.30;;;;;;;21.66;69.90;100308.56;;;;-59
2021/08/03 01:16:53;;;;;;;1.47;1.37;;;;;;;21.66;69.93;100309.46;;;;-58
2021/08/03 01:19:53;;;;;;;1.40;1.30;;;;;;;21.65;69.92;100308.81;;;;-58
2021/08/03 01:22:53;;;;;;;1.40;1.30;;;;;;;21.66;69.89;100309.38;;;;-58
2021/08/03 01:25:53;;;;;;;1.41;1.31;;;;;;;21.65;69.90;100306.22;;;;-58
2021/08/03 01:28:53;;;;;;;1.57;1.35;;;;;;;21.65;69.92;100305.72;;;;-58
2021/08/03 01:31:53;;;;;;;1.44;1.31;;;;;;;21.65;69.97;100305.33;;;;-59
2021/08/03 01:34:53;;;;;;;1.47;1.37;;;;;;;21.65;69.90;100302.23;;;;-58
2021/08/03 01:37:53;;;;;;;1.50;1.40;;;;;;;21.64;69.94;100299.44;;;;-58
2021/08/03 01:40:53;;;;;;;1.50;1.40;;;;;;;21.64;69.93;100298.78;;;;-59
2021/08/03 01:43:53;;;;;;;1.64;1.27;;;;;;;21.63;69.94;100296.53;;;;-59
2021/08/03 01:46:54;;;;;;;2.25;1.46;;;;;;;21.63;69.93;100293.50;;;;-58
2021/08/03 01:49:53;;;;;;;1.50;1.40;;;;;;;21.63;69.90;100288.92;;;;-58
2021/08/03 01:52:53;;;;;;;1.47;1.37;;;;;;;21.63;69.94;100289.19;;;;-58
2021/08/03 01:55:53;;;;;;;1.62;1.40;;;;;;;21.62;69.94;100279.66;;;;-59
2021/08/03 01:58:53;;;;;;;1.50;1.40;;;;;;;21.62;69.93;100272.53;;;;-58
2021/08/03 02:01:53;;;;;;;1.46;1.36;;;;;;;21.62;69.92;100271.56;;;;-58
2021/08/03 02:04:53;;;;;;;1.37;1.27;;;;;;;21.61;69.92;100274.76;;;;-58
2021/08/03 02:07:53;;;;;;;1.65;1.43;;;;;;;21.61;69.89;100277.20;;;;-58
2021/08/03 02:10:53;;;;;;;1.48;1.38;;;;;;;21.60;69.95;100279.34;;;;-57
2021/08/03 02:13:53;;;;;;;1.46;1.36;;;;;;;21.60;69.95;100283.80;;;;-58
2021/08/03 02:16:53;;;;;;;1.37;1.27;;;;;;;21.59;69.94;100282.19;;;;-59
2021/08/03 02:19:53;;;;;;;1.81;1.39;;;;;;;21.59;69.91;100274.11;;;;-58
2021/08/03 02:22:53;;;;;;;1.48;1.38;;;;;;;21.59;69.95;100271.98;;;;-59
2021/08/03 02:25:53;;;;;;;1.40;1.30;;;;;;;21.59;69.96;100270.53;;;;-58
2021/08/03 02:28:53;;;;;;;1.50;1.40;;;;;;;21.59;69.95;100263.35;;;;-58
2021/08/03 02:31:53;;;;;;;1.33;1.23;;;;;;;21.58;69.94;100258.71;;;;-58
2021/08/03 02:34:53;;;;;;;1.40;1.30;;;;;;;21.58;69.92;100257.98;;;;-58
2021/08/03 02:37:53;;;;;;;1.44;1.34;;;;;;;21.58;69.99;100265.32;;;;-58
2021/08/03 02:40:53;;;;;;;1.48;1.29;;;;;;;21.57;69.95;100261.31;;;;-58
2021/08/03 02:43:53;;;;;;;1.52;1.42;;;;;;;21.58;69.93;100260.73;;;;-58
2021/08/03 02:46:55;;;;;;;1.49;1.39;;;;;;;21.58;69.95;100259.67;;;;-57
2021/08/03 02:49:53;;;;;;;1.40;1.30;;;;;;;21.57;69.93;100259.77;;;;-58
2021/08/03 02:52:53;;;;;;;1.40;1.30;;;;;;;21.57;69.94;100259.04;;;;-59
2021/08/03 02:55:53;;;;;;;1.50;1.40;;;;;;;21.57;69.95;100259.69;;;;-59
2021/08/03 02:58:53;;;;;;;2.29;1.41;;;;;;;21.57;69.98;100258.30;;;;-58
2021/08/03 03:01:53;;;;;;;1.50;1.40;;;;;;;21.57;69.91;100254.88;;;;-58
2021/08/03 03:04:53;;;;;;;1.40;1.30;;;;;;;21.57;69.97;100254.47;;;;-58
2021/08/03 03:07:53;;;;;;;1.40;1.30;;;;;;;21.56;69.91;100254.08;;;;-59
2021/08/03 03:10:53;;;;;;;1.52;1.42;;;;;;;21.56;69.93;100251.20;;;;-59
2021/08/03 03:13:53;;;;;;;1.53;1.32;;;;;;;21.55;69.97;100253.49;;;;-58
2021/08/03 03:16:53;;;;;;;1.47;1.37;;;;;;;21.55;69.93;100252.11;;;;-58
2021/08/03 03:19:53;;;;;;;1.49;1.39;;;;;;;21.55;69.97;100248.45;;;;-58
2021/08/03 03:22:53;;;;;;;1.50;1.40;;;;;;;21.56;69.98;100249.49;;;;-58
2021/08/03 03:25:53;;;;;;;1.43;1.33;;;;;;;21.55;69.99;100247.71;;;;-58
2021/08/03 03:28:53;;;;;;;1.49;1.39;;;;;;;21.55;69.89;100247.55;;;;-58
2021/08/03 03:31:53;;;;;;;1.46;1.36;;;;;;;21.55;69.96;100239.73;;;;-58
2021/08/03 03:34:53;;;;;;;1.44;1.34;;;;;;;21.54;69.91;100231.33;;;;-58
2021/08/03 03:37:53;;;;;;;1.45;1.35;;;;;;;21.54;69.99;100233.59;;;;-58
2021/08/03 03:40:53;;;;;;;1.55;1.45;;;;;;;21.54;69.91;100232.55;;;;-58
2021/08/03 03:43:53;;;;;;;1.48;1.38;;;;;;;21.53;69.93;100229.94;;;;-58
2021/08/03 03:46:53;;;;;;;1.50;1.40;;;;;;;21.54;69.97;100231.73;;;;-58
2021/08/03 03:49:53;;;;;;;1.59;1.45;;;;;;;21.53;69.96;100232.55;;;;-58
2021/08/03 03:52:53;;;;;;;2.37;1.37;;;;;;;21.53;69.98;100236.22;;;;-58
2021/08/03 03:55:53;;;;;;;1.47;1.37;;;;;;;21.53;69.92;100234.42;;;;-58
2021/08/03 03:58:53;;;;;;;1.41;1.31;;;;;;;21.53;69.99;100231.98;;;;-60
2021/08/03 04:01:53;;;;;;;1.50;1.40;;;;;;;21.53;69.95;100231.42;;;;-58
2021/08/03 04:04:53;;;;;;;1.50;1.40;;;;;;;21.52;69.89;100238.02;;;;-58
2021/08/03 04:07:53;;;;;;;1.41;1.31;;;;;;;21.52;69.94;100243.16;;;;-58
2021/08/03 04:10:53;;;;;;;1.45;1.20;;;;;;;21.51;69.94;100237.70;;;;-58
2021/08/03 04:13:53;;;;;;;1.40;1.30;;;;;;;21.52;69.94;100237.30;;;;-58
2021/08/03 04:16:53;;;;;;;1.86;1.30;;;;;;;21.51;70.01;100241.45;;;;-58
2021/08/03 04:19:53;;;;;;;1.40;1.30;;;;;;;21.51;70.01;100242.52;;;;-58
2021/08/03 04:22:53;;;;;;;1.49;1.39;;;;;;;21.50;69.96;100241.95;;;;-58
2021/08/03 04:25:53;;;;;;;1.60;1.50;;;;;;;21.50;69.98;100244.56;;;;-58
2021/08/03 04:28:53;;;;;;;1.45;1.35;;;;;;;21.49;69.99;100239.83;;;;-58
2021/08/03 04:31:53;;;;;;;1.36;1.26;;;;;;;21.50;70.02;100233.95;;;;-58
2021/08/03 04:34:53;;;;;;;1.50;1.40;;;;;;;21.50;70.01;100236.55;;;;-59
2021/08/03 04:37:53;;;;;;;1.40;1.30;;;;;;;21.49;69.99;100236.08;;;;-58
2021/08/03 04:40:53;;;;;;;1.40;1.30;;;;;;;21.49;70.05;100232.58;;;;-58
2021/08/03 04:43:53;;;;;;;1.30;1.25;;;;;;;21.49;70.05;100229.97;;;;-58
2021/08/03 04:46:53;;;;;;;1.41;1.31;;;;;;;21.48;69.99;100228.02;;;;-58
2021/08/03 04:49:53;;;;;;;1.19;1.15;;;;;;;21.48;69.99;100230.30;;;;-58
2021/08/03 04:52:53;;;;;;;1.40;1.30;;;;;;;21.48;70.00;100231.78;;;;-57
2021/08/03 04:55:53;;;;;;;1.50;1.30;;;;;;;21.48;70.05;100231.84;;;;-58
2021/08/03 04:58:53;;;;;;;1.83;1.42;;;;;;;21.47;70.01;100227.36;;;;-58
2021/08/03 05:01:53;;;;;;;1.40;1.30;;;;;;;21.48;70.04;100227.05;;;;-53
2021/08/03 05:04:53;;;;;;;1.46;1.36;;;;;;;21.48;70.05;100224.12;;;;-52
2021/08/03 05:07:53;;;;;;;1.40;1.30;;;;;;;21.47;70.06;100221.33;;;;-52
2021/08/03 05:10:53;;;;;;;1.40;1.30;;;;;;;21.47;70.04;100220.27;;;;-52
2021/08/03 05:13:53;;;;;;;1.40;1.30;;;;;;;21.47;70.06;100214.09;;;;-53
2021/08/03 05:16:53;;;;;;;1.40;1.30;;;;;;;21.46;70.07;100216.05;;;;-52
2021/08/03 05:19:53;;;;;;;1.35;1.25;;;;;;;21.46;70.05;100208.64;;;;-52
2021/08/03 05:22:53;;;;;;;1.49;1.39;;;;;;;21.46;70.10;100215.16;;;;-53
2021/08/03 05:25:53;;;;;;;1.37;1.27;;;;;;;21.46;70.12;100213.91;;;;-53
2021/08/03 05:28:53;;;;;;;1.30;1.20;;;;;;;21.45;70.09;100216.94;;;;-52
2021/08/03 05:31:53;;;;;;;1.27;1.20;;;;;;;21.45;70.13;100214.00;;;;-52
2021/08/03 05:34:53;;;;;;;1.40;1.30;;;;;;;21.45;70.01;100212.86;;;;-53
2021/08/03 05:37:53;;;;;;;1.30;1.20;;;;;;;21.45;70.14;100210.34;;;;-53
2021/08/03 05:40:53;;;;;;;1.40;1.30;;;;;;;21.45;70.08;100205.86;;;;-53
2021/08/03 05:43:53;;;;;;;1.27;1.20;;;;;;;21.45;70.10;100206.92;;;;-53
2021/08/03 05:46:53;;;;;;;1.40;1.30;;;;;;;21.45;70.08;100203.66;;;;-54
2021/08/03 05:49:53;;;;;;;1.40;1.30;;;;;;;21.45;70.06;100201.38;;;;-59
2021/08/03 05:52:53;;;;;;;1.43;1.33;;;;;;;21.44;70.11;100198.70;;;;-58
2021/08/03 05:55:53;;;;;;;1.42;1.32;;;;;;;21.44;70.03;100200.91;;;;-59
2021/08/03 05:58:53;;;;;;;1.47;1.37;;;;;;;21.44;70.07;100205.70;;;;-59
2021/08/03 06:01:53;;;;;;;1.40;1.30;;;;;;;21.44;70.02;100199.76;;;;-53
2021/08/03 06:04:54;;;;;;;1.41;1.31;;;;;;;21.44;70.03;100203.67;;;;-59
2021/08/03 06:07:53;;;;;;;1.40;1.30;;;;;;;21.45;70.10;100198.61;;;;-52
2021/08/03 06:10:53;;;;;;;1.16;1.15;;;;;;;21.44;70.04;100205.54;;;;-52
2021/08/03 06:13:55;;;;;;;1.44;1.34;;;;;;;21.45;70.01;100206.11;;;;-52
2021/08/03 06:16:53;;;;;;;1.40;1.30;;;;;;;21.44;70.00;100208.16;;;;-52
2021/08/03 06:19:53;;;;;;;1.40;1.31;;;;;;;21.44;70.07;100207.26;;;;-52
2021/08/03 06:22:54;;;;;;;1.37;1.27;;;;;;;21.44;70.07;100215.73;;;;-52
2021/08/03 06:25:53;;;;;;;1.45;1.35;;;;;;;21.45;70.07;100221.51;;;;-52
2021/08/03 06:28:54;;;;;;;1.40;1.30;;;;;;;21.44;70.01;100223.16;;;;-52
2021/08/03 06:31:53;;;;;;;1.50;1.40;;;;;;;21.44;70.05;100220.55;;;;-52
2021/08/03 06:34:53;;;;;;;1.41;1.31;;;;;;;21.44;69.96;100221.86;;;;-52
2021/08/03 06:37:53;;;;;;;1.30;1.28;;;;;;;21.43;70.04;100212.38;;;;-52
2021/08/03 06:40:53;;;;;;;3.63;2.59;;;;;;;21.39;67.93;100216.20;;;;-52
2021/08/03 06:43:53;;;;;;;4.47;2.51;;;;;;;21.26;68.05;100218.48;;;;-51
2021/08/03 06:46:53;;;;;;;4.33;2.61;;;;;;;21.16;68.73;100219.17;;;;-51
2021/08/03 06:49:53;;;;;;;5.47;2.60;;;;;;;21.16;69.14;100226.52;;;;-51
2021/08/03 06:52:53;;;;;;;6.44;2.42;;;;;;;21.16;69.27;100226.52;;;;-51
2021/08/03 06:55:53;;;;;;;2.53;2.29;;;;;;;21.16;69.40;100226.44;;;;-51
2021/08/03 06:58:53;;;;;;;4.37;2.29;;;;;;;21.16;69.43;100225.95;;;;-50
2021/08/03 07:01:53;;;;;;;2.39;2.18;;;;;;;21.14;69.50;100229.37;;;;-52
2021/08/03 07:04:53;;;;;;;2.72;2.29;;;;;;;21.16;69.39;100232.14;;;;-52
2021/08/03 07:07:53;;;;;;;2.81;2.19;;;;;;;21.18;69.42;100231.80;;;;-51
2021/08/03 07:10:53;;;;;;;2.14;1.94;;;;;;;21.19;69.41;100232.13;;;;-52
2021/08/03 07:13:53;;;;;;;2.61;2.20;;;;;;;21.19;69.45;100235.55;;;;-51
2021/08/03 07:16:53;;;;;;;2.38;2.18;;;;;;;21.20;69.50;100247.43;;;;-52
2021/08/03 07:19:53;;;;;;;3.10;2.10;;;;;;;21.20;69.54;100253.63;;;;-53
2021/08/03 07:22:53;;;;;;;7.48;2.27;;;;;;;21.24;70.05;100252.80;;;;-52
2021/08/03 07:25:53;;;;;;;7.94;2.33;;;;;;;21.24;69.63;100259.25;;;;-52
2021/08/03 07:28:53;;;;;;;3.97;2.25;;;;;;;21.24;69.72;100265.27;;;;-48
2021/08/03 07:31:53;;;;;;;4.05;2.15;;;;;;;21.28;69.68;100266.33;;;;-53
2021/08/03 07:34:53;;;;;;;6.17;2.50;;;;;;;21.31;69.46;100272.08;;;;-58
2021/08/03 07:37:53;;;;;;;3.33;2.26;;;;;;;21.23;69.28;100268.61;;;;-60
2021/08/03 07:40:53;;;;;;;4.07;2.42;;;;;;;21.17;69.76;100269.47;;;;-61
2021/08/03 07:43:53;;;;;;;3.44;2.25;;;;;;;21.17;69.91;100269.95;;;;-62
2021/08/03 07:46:53;;;;;;;3.27;2.12;;;;;;;21.22;69.32;100272.53;;;;-61
2021/08/03 07:49:53;;;;;;;6.70;1.97;;;;;;;21.27;69.14;100281.47;;;;-57
2021/08/03 07:52:53;;;;;;;4.15;2.03;;;;;;;21.26;69.01;100285.80;;;;-56
2021/08/03 07:55:53;;;;;;;3.11;1.89;;;;;;;21.27;68.92;100290.14;;;;-60
2021/08/03 07:58:53;;;;;;;6.28;2.19;;;;;;;21.31;68.76;100297.77;;;;-54
2021/08/03 08:01:53;;;;;;;2.51;1.99;;;;;;;21.31;68.88;100305.28;;;;-53
2021/08/03 08:04:53;;;;;;;3.97;2.01;;;;;;;21.34;69.07;100302.58;;;;-53
2021/08/03 08:07:57;;;;;;;6.44;2.15;;;;;;;21.36;68.98;100299.15;;;;-53
2021/08/03 08:10:53;;;;;;;4.06;1.99;;;;;;;21.37;69.00;100296.03;;;;-52
2021/08/03 08:13:53;;;;;;;4.19;2.00;;;;;;;21.37;69.05;100286.08;;;;-59
2021/08/03 08:16:53;;;;;;;3.87;1.87;;;;;;;21.41;69.20;100283.38;;;;-54
2021/08/03 08:19:53;;;;;;;5.29;1.93;;;;;;;21.42;69.33;100288.55;;;;-53
2021/08/03 08:22:53;;;;;;;5.80;2.01;;;;;;;21.44;69.40;100288.63;;;;-52
2021/08/03 08:25:53;;;;;;;5.05;2.01;;;;;;;21.46;69.39;100300.03;;;;-55
2021/08/03 08:28:53;;;;;;;4.30;1.88;;;;;;;21.48;69.51;100307.12;;;;-52
2021/08/03 08:31:53;;;;;;;4.21;1.87;;;;;;;21.49;69.61;100313.62;;;;-56
2021/08/03 08:34:53;;;;;;;4.15;1.95;;;;;;;21.51;69.54;100314.92;;;;-51
2021/08/03 08:37:53;;;;;;;3.67;1.82;;;;;;;21.53;69.59;100310.84;;;;-52
2021/08/03 08:40:53;;;;;;;2.61;1.95;;;;;;;21.54;69.69;100321.83;;;;-53
2021/08/03 08:43:53;;;;;;;4.48;1.84;;;;;;;21.55;69.69;100323.55;;;;-51
2021/08/03 08:46:54;;;;;;;4.10;2.01;;;;;;;21.56;69.69;100326.00;;;;-51
2021/08/03 08:49:53;;;;;;;2.33;1.86;;;;;;;21.57;69.78;100317.91;;;;-55
2021/08/03 08:52:54;;;;;;;8.39;2.17;;;;;;;21.60;69.80;100312.75;;;;-57
2021/08/03 08:55:53;;;;;;;3.11;1.91;;;;;;;21.62;69.72;100302.55;;;;-51
2021/08/03 08:58:53;;;;;;;6.40;1.97;;;;;;;21.63;69.77;100304.84;;;;-53
2021/08/03 09:01:53;;;;;;;5.73;1.87;;;;;;;21.62;69.87;100311.52;;;;-53
2021/08/03 09:04:53;;;;;;;5.81;2.05;;;;;;;21.62;69.84;100311.03;;;;-53
2021/08/03 09:07:53;;;;;;;4.13;1.92;;;;;;;21.61;69.84;100307.95;;;;-58
2021/08/03 09:10:53;;;;;;;5.02;1.75;;;;;;;21.63;69.76;100309.41;;;;-60
2021/08/03 09:13:53;;;;;;;8.43;1.90;;;;;;;21.62;69.81;100307.59;;;;-54
2021/08/03 09:16:55;;;;;;;6.23;1.84;;;;;;;21.64;69.83;100313.47;;;;-54
2021/08/03 09:19:53;;;;;;;4.19;1.90;;;;;;;21.65;69.82;100316.91;;;;-54
2021/08/03 09:22:53;;;;;;;3.50;1.77;;;;;;;21.65;69.89;100318.28;;;;-50
2021/08/03 09:25:53;;;;;;;3.35;1.85;;;;;;;21.66;69.91;100326.34;;;;-51
2021/08/03 09:28:53;;;;;;;4.13;1.85;;;;;;;21.66;69.99;100330.73;;;;-48
2021/08/03 09:31:54;;;;;;;5.32;1.85;;;;;;;21.67;69.96;100334.99;;;;-52
2021/08/03 09:34:53;;;;;;;3.79;1.79;;;;;;;21.68;70.05;100328.61;;;;-50
2021/08/03 09:37:53;;;;;;;6.65;1.91;;;;;;;21.69;70.03;100330.49;;;;-60
2021/08/03 09:40:55;;;;;;;3.11;1.84;;;;;;;21.70;69.92;100329.59;;;;-57
2021/08/03 09:43:53;;;;;;;4.73;1.80;;;;;;;21.70;70.06;100330.73;;;;-59
2021/08/03 09:46:53;;;;;;;2.65;1.76;;;;;;;21.71;69.99;100327.15;;;;-52
2021/08/03 09:49:53;;;;;;;5.63;1.69;;;;;;;21.71;70.00;100327.23;;;;-54
2021/08/03 09:52:53;;;;;;;2.65;1.65;;;;;;;21.72;70.00;100315.05;;;;-52
2021/08/03 09:55:53;;;;;;;3.15;1.71;;;;;;;21.73;69.99;100304.29;;;;-53
2021/08/03 09:58:53;;;;;;;1.73;1.60;;;;;;;21.74;70.02;100282.84;;;;-51
2021/08/03 10:01:53;;;;;;;2.46;1.70;;;;;;;21.75;70.02;100274.27;;;;-55
2021/08/03 10:04:53;;;;;;;3.05;1.88;;;;;;;21.77;69.87;100258.33;;;;-56
2021/08/03 10:07:53;;;;;;;4.09;1.68;;;;;;;21.76;69.96;100233.55;;;;-56
2021/08/03 10:10:53;;;;;;;6.59;1.70;;;;;;;21.77;69.85;100234.30;;;;-55
2021/08/03 10:13:53;;;;;;;2.45;1.78;;;;;;;21.77;69.83;100234.63;;;;-56
2021/08/03 10:16:54;;;;;;;3.11;1.72;;;;;;;21.77;69.83;100223.75;;;;-56
2021/08/03 10:19:53;;;;;;;3.49;1.82;;;;;;;21.77;69.83;100234.52;;;;-56
2021/08/03 10:22:53;;;;;;;2.39;1.74;;;;;;;21.77;69.72;100235.44;;;;-51
2021/08/03 10:25:53;;;;;;;3.83;1.69;;;;;;;21.77;69.77;100243.33;;;;-51
2021/08/03 10:28:53;;;;;;;2.21;1.81;;;;;;;21.77;69.68;100230.86;;;;-51
2021/08/03 10:31:53;;;;;;;2.99;1.65;;;;;;;21.77;69.64;100229.23;;;;-51
2021/08/03 10:34:53;;;;;;;1.82;1.60;;;;;;;21.77;69.62;100221.07;;;;-50
2021/08/03 10:37:53;;;;;;;3.75;1.75;;;;;;;21.78;69.58;100210.29;;;;-51
2021/08/03 10:42:53;;;;;;;3.40;1.62;;;;;;;21.77;69.53;100208.67;;;;-50
2021/08/03 10:45:53;;;;;;;3.15;1.79;;;;;;;21.76;69.62;100211.27;;;;-58
2021/08/03 10:48:55;;;;;;;3.28;1.60;;;;;;;21.78;69.54;100210.61;;;;-51
2021/08/03 10:51:53;;;;;;;1.77;1.62;;;;;;;21.80;69.57;100212.81;;;;-50
2021/08/03 10:54:53;;;;;;;2.04;1.51;;;;;;;21.80;69.64;100211.49;;;;-50
2021/08/03 10:57:53;;;;;;;2.98;1.62;;;;;;;21.82;69.61;100213.77;;;;-51
2021/08/03 11:00:53;;;;;;;2.81;1.63;;;;;;;21.81;69.74;100213.44;;;;-51
2021/08/03 11:03:53;;;;;;;3.15;1.72;;;;;;;21.81;69.65;100211.10;;;;-51
2021/08/03 11:06:53;;;;;;;1.77;1.53;;;;;;;21.80;69.62;100207.25;;;;-52
2021/08/03 11:09:53;;;;;;;3.31;1.55;;;;;;;21.79;69.60;100205.88;;;;-51
2021/08/03 11:12:53;;;;;;;3.02;1.70;;;;;;;21.80;69.57;100204.48;;;;-53
2021/08/03 11:15:53;;;;;;;2.40;1.56;;;;;;;21.79;69.59;100201.00;;;;-52
2021/08/03 11:18:53;;;;;;;2.53;1.62;;;;;;;21.79;69.51;100196.02;;;;-51
2021/08/03 11:21:53;;;;;;;2.72;1.67;;;;;;;21.79;69.51;100190.06;;;;-51
2021/08/03 11:24:53;;;;;;;1.61;1.50;;;;;;;21.80;69.56;100184.75;;;;-57
2021/08/03 11:27:53;;;;;;;1.74;1.60;;;;;;;21.79;69.53;100176.85;;;;-58
2021/08/03 11:30:53;;;;;;;1.95;1.58;;;;;;;21.78;69.50;100173.25;;;;-57
2021/08/03 11:33:53;;;;;;;2.39;1.64;;;;;;;21.78;69.50;100172.11;;;;-58
2021/08/03 11:36:53;;;;;;;1.90;1.53;;;;;;;21.78;69.49;100167.38;;;;-52
2021/08/03 11:39:53;;;;;;;2.20;1.67;;;;;;;21.78;69.47;100160.12;;;;-52
2021/08/03 11:42:53;;;;;;;3.21;1.85;;;;;;;21.78;69.44;100157.67;;;;-52
2021/08/03 11:45:53;;;;;;;2.42;1.63;;;;;;;21.79;69.46;100157.93;;;;-58
2021/08/03 11:48:53;;;;;;;2.06;1.50;;;;;;;21.78;69.47;100162.31;;;;-58
2021/08/03 11:51:54;;;;;;;1.82;1.52;;;;;;;21.79;69.46;100154.40;;;;-51
2021/08/03 11:54:53;;;;;;;2.13;1.60;;;;;;;21.78;69.44;100148.70;;;;-51
2021/08/03 11:57:53;;;;;;;2.12;1.70;;;;;;;21.78;69.45;100143.88;;;;-52
2021/08/03 12:00:53;;;;;;;3.63;1.68;;;;;;;21.78;69.40;100143.98;;;;-52
2021/08/03 12:03:53;;;;;;;1.93;1.61;;;;;;;21.78;69.45;100137.78;;;;-51
2021/08/03 12:06:53;;;;;;;3.05;1.65;;;;;;;21.78;69.40;100132.79;;;;-52
2021/08/03 12:09:53;;;;;;;1.80;1.53;;;;;;;21.78;69.44;100129.52;;;;-52
2021/08/03 12:12:53;;;;;;;2.05;1.60;;;;;;;21.79;69.38;100121.12;;;;-51
2021/08/03 12:15:53;;;;;;;1.93;1.52;;;;;;;21.78;69.36;100118.69;;;;-52
2021/08/03 12:18:53;;;;;;;1.59;1.49;;;;;;;21.78;69.42;100117.05;;;;-58
2021/08/03 12:21:53;;;;;;;1.60;1.50;;;;;;;21.78;69.40;100114.52;;;;-52
2021/08/03 12:24:53;;;;;;;1.96;1.60;;;;;;;21.78;69.38;100114.69;;;;-59
2021/08/03 12:27:54;;;;;;;2.63;1.55;;;;;;;21.78;69.39;100116.23;;;;-59
2021/08/03 12:30:53;;;;;;;1.77;1.48;;;;;;;21.78;69.39;100111.43;;;;-51
2021/08/03 12:33:53;;;;;;;2.17;1.70;;;;;;;21.78;69.36;100103.52;;;;-52
2021/08/03 12:36:53;;;;;;;2.83;1.47;;;;;;;21.77;69.47;100106.88;;;;-52
2021/08/03 12:39:55;;;;;;;2.06;1.51;;;;;;;21.81;69.47;100105.05;;;;-54
2021/08/03 12:42:56;;;;;;;1.86;1.49;;;;;;;21.82;69.49;100093.78;;;;-57
2021/08/03 12:45:53;;;;;;;1.78;1.53;;;;;;;21.83;69.56;100093.52;;;;-54
2021/08/03 12:48:53;;;;;;;1.91;1.46;;;;;;;21.85;69.58;100096.27;;;;-57
2021/08/03 12:51:53;;;;;;;3.92;1.47;;;;;;;21.86;69.62;100092.36;;;;-50
2021/08/03 12:54:53;;;;;;;2.63;1.50;;;;;;;21.87;69.66;100093.56;;;;-52
2021/08/03 12:57:53;;;;;;;2.21;1.50;;;;;;;21.88;69.64;100090.12;;;;-51
2021/08/03 13:00:53;;;;;;;2.58;1.42;;;;;;;21.90;69.46;100090.51;;;;-54
2021/08/03 13:03:53;;;;;;;1.90;1.51;;;;;;;21.89;69.66;100084.50;;;;-59
2021/08/03 13:06:53;;;;;;;4.12;1.68;;;;;;;21.90;69.61;100087.08;;;;-60
2021/08/03 13:09:53;;;;;;;2.99;1.69;;;;;;;21.89;69.57;100079.26;;;;-59
2021/08/03 13:12:54;;;;;;;3.23;1.62;;;;;;;21.89;69.56;100080.80;;;;-60
2021/08/03 13:15:53;;;;;;;1.82;1.53;;;;;;;21.90;69.51;100080.00;;;;-59
2021/08/03 13:18:53;;;;;;;3.10;1.52;;;;;;;21.89;69.49;100082.12;;;;-59
2021/08/03 13:21:53;;;;;;;1.90;1.49;;;;;;;21.88;69.52;100078.78;;;;-60
2021/08/03 13:24:53;;;;;;;1.51;1.40;;;;;;;21.88;69.49;100080.75;;;;-59
2021/08/03 13:27:53;;;;;;;2.23;1.33;;;;;;;21.88;69.43;100077.91;;;;-59
2021/08/03 13:30:53;;;;;;;2.48;1.57;;;;;;;21.88;69.46;100077.73;;;;-59
2021/08/03 13:33:53;;;;;;;3.41;1.47;;;;;;;21.87;69.46;100071.94;;;;-59
2021/08/03 13:36:53;;;;;;;1.51;1.41;;;;;;;21.88;69.49;100066.64;;;;-53
2021/08/03 13:39:53;;;;;;;1.79;1.60;;;;;;;21.87;69.45;100057.73;;;;-54
2021/08/03 13:42:53;;;;;;;1.71;1.47;;;;;;;21.87;69.40;100056.12;;;;-53
2021/08/03 13:45:53;;;;;;;2.57;1.39;;;;;;;21.87;69.39;100052.79;;;;-58
2021/08/03 13:48:53;;;;;;;2.62;1.50;;;;;;;21.87;69.41;100052.95;;;;-58
2021/08/03 13:51:53;;;;;;;2.43;1.38;;;;;;;21.87;69.38;100053.27;;;;-58
2021/08/03 13:54:53;;;;;;;1.91;1.42;;;;;;;21.87;69.43;100052.84;;;;-58
2021/08/03 13:57:53;;;;;;;1.50;1.40;;;;;;;21.87;69.43;100051.98;;;;-58
2021/08/03 14:00:53;;;;;;;1.71;1.41;;;;;;;21.87;69.36;100052.52;;;;-58
2021/08/03 14:03:53;;;;;;;2.64;1.39;;;;;;;21.86;69.38;100051.72;;;;-58
2021/08/03 14:06:53;;;;;;;1.50;1.40;;;;;;;21.87;69.36;100055.05;;;;-58
2021/08/03 14:09:53;;;;;;;1.74;1.63;;;;;;;21.87;69.35;100056.92;;;;-59
2021/08/03 14:12:53;;;;;;;2.36;1.40;;;;;;;21.88;69.40;100056.69;;;;-60
2021/08/03 14:15:53;;;;;;;1.55;1.39;;;;;;;21.87;69.34;100056.05;;;;-57
2021/08/03 14:18:53;;;;;;;1.46;1.36;;;;;;;21.88;69.36;100047.55;;;;-59
2021/08/03 14:21:53;;;;;;;1.35;1.25;;;;;;;21.86;69.32;100046.01;;;;-59
2021/08/03 14:24:53;;;;;;;1.75;1.50;;;;;;;21.87;69.31;100040.94;;;;-58
2021/08/03 14:27:53;;;;;;;1.56;1.40;;;;;;;21.87;69.36;100034.83;;;;-54
2021/08/03 14:30:53;;;;;;;1.41;1.30;;;;;;;21.87;69.35;100032.78;;;;-53
2021/08/03 14:33:53;;;;;;;1.83;1.37;;;;;;;21.87;69.31;100033.19;;;;-53
2021/08/03 14:36:53;;;;;;;2.10;1.29;;;;;;;21.86;69.35;100034.75;;;;-53
2021/08/03 14:39:53;;;;;;;1.45;1.35;;;;;;;21.86;69.31;100030.27;;;;-54
2021/08/03 14:42:53;;;;;;;1.71;1.32;;;;;;;21.87;69.32;100032.38;;;;-53
2021/08/03 14:45:54;;;;;;;1.96;1.39;;;;;;;21.86;69.32;100030.92;;;;-53
2021/08/03 14:48:53;;;;;;;1.62;1.40;;;;;;;21.87;69.31;100032.05;;;;-54
2021/08/03 14:51:53;;;;;;;1.45;1.32;;;;;;;21.86;69.31;100030.19;;;;-58
2021/08/03 14:54:53;;;;;;;1.73;1.40;;;;;;;21.87;69.32;100034.01;;;;-58
2021/08/03 14:57:53;;;;;;;1.46;1.36;;;;;;;21.86;69.31;100032.16;;;;-59
2021/08/03 15:00:53;;;;;;;2.57;1.34;;;;;;;21.86;69.39;100033.63;;;;-59
2021/08/03 15:03:53;;;;;;;1.41;1.27;;;;;;;21.87;69.37;100033.28;;;;-57
2021/08/03 15:06:53;;;;;;;1.55;1.37;;;;;;;21.90;69.46;100028.77;;;;-56
2021/08/03 15:09:54;;;;;;;1.61;1.30;;;;;;;21.91;69.54;100015.93;;;;-58
2021/08/03 15:12:53;;;;;;;1.48;1.33;;;;;;;21.93;69.55;100017.39;;;;-56
2021/08/03 15:15:53;;;;;;;1.69;1.29;;;;;;;21.94;69.57;100012.91;;;;-57
2021/08/03 15:18:53;;;;;;;1.39;1.29;;;;;;;21.95;69.64;100008.55;;;;-56
2021/08/03 15:21:53;;;;;;;1.34;1.24;;;;;;;21.97;69.76;100009.02;;;;-57
2021/08/03 15:24:53;;;;;;;1.40;1.30;;;;;;;21.97;69.72;100007.13;;;;-57
2021/08/03 15:27:53;;;;;;;1.73;1.31;;;;;;;21.99;69.67;100013.81;;;;-58
2021/08/03 15:30:53;;;;;;;1.72;1.35;;;;;;;22.00;69.69;100006.22;;;;-61
2021/08/03 15:33:53;;;;;;;1.41;1.30;;;;;;;22.02;69.78;100009.86;;;;-60
2021/08/03 15:36:53;;;;;;;1.51;1.39;;;;;;;22.03;69.78;100013.13;;;;-61
2021/08/03 15:39:53;;;;;;;1.39;1.29;;;;;;;22.04;69.79;100020.93;;;;-57
2021/08/03 15:42:53;;;;;;;1.33;1.23;;;;;;;22.04;69.83;100021.25;;;;-61
2021/08/03 15:45:53;;;;;;;1.60;1.33;;;;;;;22.05;69.84;100021.26;;;;-58
2021/08/03 15:48:53;;;;;;;3.85;1.40;;;;;;;22.05;69.86;100021.08;;;;-61
2021/08/03 15:51:53;;;;;;;1.91;1.35;;;;;;;22.06;69.86;100019.60;;;;-61
2021/08/03 15:54:53;;;;;;;1.39;1.29;;;;;;;22.06;69.77;100026.31;;;;-57
2021/08/03 15:57:53;;;;;;;1.39;1.29;;;;;;;22.06;69.86;100029.65;;;;-57
2021/08/03 16:00:53;;;;;;;1.67;1.27;;;;;;;22.06;69.92;100030.63;;;;-55
2021/08/03 16:03:53;;;;;;;1.47;1.32;;;;;;;22.08;69.85;100028.50;;;;-56
2021/08/03 16:06:53;;;;;;;2.89;1.31;;;;;;;22.08;69.93;100032.07;;;;-60
2021/08/03 16:09:53;;;;;;;2.11;1.31;;;;;;;22.09;69.87;100036.63;;;;-57
2021/08/03 16:12:53;;;;;;;2.21;1.31;;;;;;;22.09;69.96;100039.16;;;;-60
2021/08/03 16:15:53;;;;;;;1.94;1.30;;;;;;;22.10;69.93;100042.56;;;;-58
2021/08/03 16:18:53;;;;;;;2.49;1.40;;;;;;;22.10;69.97;100037.83;;;;-57
2021/08/03 16:21:53;;;;;;;2.16;1.31;;;;;;;22.10;69.94;100041.19;;;;-59
2021/08/03 16:24:53;;;;;;;1.57;1.39;;;;;;;22.10;69.96;100038.74;;;;-59
2021/08/03 16:27:53;;;;;;;2.19;1.43;;;;;;;22.12;69.93;100038.79;;;;-58
2021/08/03 16:30:53;;;;;;;1.99;1.30;;;;;;;22.12;69.88;100043.77;;;;-63
2021/08/03 16:33:53;;;;;;;1.66;1.40;;;;;;;22.12;69.90;100047.95;;;;-55
2021/08/03 16:36:53;;;;;;;3.51;1.30;;;;;;;22.13;69.83;100048.35;;;;-58
2021/08/03 16:39:53;;;;;;;3.45;1.30;;;;;;;22.12;69.88;100060.19;;;;-56
2021/08/03 16:42:53;;;;;;;1.36;1.26;;;;;;;22.13;69.92;100056.90;;;;-58
2021/08/03 16:45:53;;;;;;;1.85;1.30;;;;;;;22.13;69.97;100059.44;;;;-58